createdAt,value
2018-11-06T00:00:21.538Z,97351.09
2018-11-06T00:02:54.683Z,97352.98
2018-11-06T00:05:23.616Z,97344.44
2018-11-06T00:07:53.151Z,97344.16
2018-11-06T00:10:21.894Z,97347.39
2018-11-06T00:12:50.976Z,97353.52
2018-11-06T00:15:19.897Z,97351.66
2018-11-06T00:17:48.936Z,97345.50
2018-11-06T00:20:17.966Z,97345.78
2018-11-06T00:22:47.277Z,97349.01
2018-11-06T00:25:16.370Z,97336.98
2018-11-06T00:27:46.700Z,97338.59
2018-11-06T00:30:15.921Z,97344.47
2018-11-06T00:32:45.092Z,97338.05
2018-11-06T00:35:15.457Z,97343.91
2018-11-06T00:37:45.791Z,97350.88
2018-11-06T00:40:15.335Z,97343.39
2018-11-06T00:42:44.883Z,97340.99
2018-11-06T00:45:16.187Z,97346.34
2018-11-06T00:47:45.017Z,97339.38
2018-11-06T00:50:14.877Z,97347.64
2018-11-06T00:52:45.051Z,97340.69
2018-11-06T00:55:14.000Z,97336.14
2018-11-06T00:57:43.822Z,97330.03
2018-11-06T01:00:18.544Z,97328.16
2018-11-06T01:02:49.716Z,97325.21
2018-11-06T01:05:19.326Z,97333.50
2018-11-06T01:07:49.273Z,97328.13
2018-11-06T01:10:18.400Z,97331.05
2018-11-06T01:12:47.602Z,97334.00
2018-11-06T01:15:17.705Z,97331.05
2018-11-06T01:17:47.641Z,97328.13
2018-11-06T01:20:17.891Z,97329.45
2018-11-06T01:22:47.121Z,97330.55
2018-11-06T01:25:16.835Z,97328.94
2018-11-06T01:27:45.591Z,97330.80
2018-11-06T01:30:18.572Z,97330.03
2018-11-06T01:32:48.112Z,97336.67
2018-11-06T01:35:18.387Z,97329.22
2018-11-06T01:37:47.745Z,97329.22
2018-11-06T01:40:18.924Z,97333.51
2018-11-06T01:42:48.756Z,97331.36
2018-11-06T01:45:21.616Z,97324.92
2018-11-06T01:47:51.273Z,97323.59
2018-11-06T01:50:20.615Z,97323.59
2018-11-06T01:52:49.958Z,97325.98
2018-11-06T01:55:20.135Z,97319.83
2018-11-06T01:57:50.095Z,97319.30
2018-11-06T02:00:20.307Z,97320.10
2018-11-06T02:02:50.355Z,97319.81
2018-11-06T02:05:19.439Z,97313.38
2018-11-06T02:07:49.327Z,97318.71
2018-11-06T02:10:19.590Z,97322.97
2018-11-06T02:12:49.322Z,97313.67
2018-11-06T02:15:18.631Z,97306.22
2018-11-06T02:17:48.151Z,97307.28
2018-11-06T02:20:18.026Z,97306.74
2018-11-06T02:22:47.813Z,97308.61
2018-11-06T02:25:17.907Z,97311.28
2018-11-06T02:27:47.386Z,97302.98
2018-11-06T02:30:17.723Z,97300.54
2018-11-06T02:32:47.368Z,97293.05
2018-11-06T02:35:16.380Z,97294.38
2018-11-06T02:37:45.368Z,97296.01
2018-11-06T02:40:15.408Z,97301.13
2018-11-06T02:42:45.612Z,97295.81
2018-11-06T02:45:14.900Z,97290.20
2018-11-06T02:47:44.037Z,97290.20
2018-11-06T02:50:15.626Z,97295.83
2018-11-06T02:52:45.134Z,97294.25
2018-11-06T02:55:14.693Z,97294.00
2018-11-06T02:57:43.899Z,97303.09
2018-11-06T03:00:15.057Z,97306.85
2018-11-06T03:02:45.264Z,97302.02
2018-11-06T03:05:13.857Z,97301.48
2018-11-06T03:07:42.960Z,97302.54
2018-11-06T03:10:13.084Z,97299.34
2018-11-06T03:12:43.296Z,97291.64
2018-11-06T03:15:13.445Z,97293.77
2018-11-06T03:17:43.232Z,97301.78
2018-11-06T03:20:13.732Z,97304.75
2018-11-06T03:22:44.617Z,97300.98
2018-11-06T03:25:14.085Z,97297.24
2018-11-06T03:27:43.532Z,97294.05
2018-11-06T03:30:16.531Z,97299.66
2018-11-06T03:32:45.681Z,97315.69
2018-11-06T03:35:15.997Z,97311.67
2018-11-06T03:37:45.330Z,97305.79
2018-11-06T03:40:14.446Z,97308.99
2018-11-06T03:42:43.842Z,97309.25
2018-11-06T03:45:14.782Z,97315.39
2018-11-06T03:47:43.826Z,97314.33
2018-11-06T03:50:13.563Z,97312.45
2018-11-06T03:52:42.557Z,97311.14
2018-11-06T03:55:11.581Z,97302.59
2018-11-06T03:57:40.513Z,97311.92
2018-11-06T04:00:15.361Z,97315.64
2018-11-06T04:02:47.189Z,97323.66
2018-11-06T04:05:16.406Z,97315.94
2018-11-06T04:07:46.159Z,97318.58
2018-11-06T04:10:16.722Z,97323.40
2018-11-06T04:12:47.440Z,97328.20
2018-11-06T04:15:17.307Z,97333.28
2018-11-06T04:17:46.882Z,97330.59
2018-11-06T04:20:16.803Z,97315.89
2018-11-06T04:22:45.907Z,97330.58
2018-11-06T04:25:15.568Z,97328.16
2018-11-06T04:27:44.811Z,97326.82
2018-11-06T04:30:14.690Z,97331.88
2018-11-06T04:32:44.892Z,97340.39
2018-11-06T04:35:14.176Z,97339.33
2018-11-06T04:37:43.173Z,97330.55
2018-11-06T04:40:13.365Z,97329.20
2018-11-06T04:42:42.361Z,97316.13
2018-11-06T04:45:11.794Z,97308.14
2018-11-06T04:47:40.551Z,97305.17
2018-11-06T04:50:10.625Z,97296.39
2018-11-06T04:52:39.482Z,97296.64
2018-11-06T04:55:09.923Z,97303.34
2018-11-06T04:57:38.741Z,97297.72
2018-11-06T05:00:09.594Z,97293.74
2018-11-06T05:02:38.460Z,97298.27
2018-11-06T05:05:08.038Z,97291.91
2018-11-06T05:07:38.172Z,97286.56
2018-11-06T05:10:08.641Z,97285.24
2018-11-06T05:12:38.202Z,97294.31
2018-11-06T05:15:08.352Z,97291.10
2018-11-06T05:17:37.432Z,97292.17
2018-11-06T05:20:08.907Z,97288.19
2018-11-06T05:22:37.739Z,97285.52
2018-11-06T05:25:08.006Z,97287.40
2018-11-06T05:27:37.315Z,97285.26
2018-11-06T05:30:06.829Z,97284.19
2018-11-06T05:32:35.923Z,97283.39
2018-11-06T05:35:05.912Z,97287.92
2018-11-06T05:37:35.030Z,97290.59
2018-11-06T05:40:14.713Z,97300.73
2018-11-06T05:42:43.626Z,97304.73
2018-11-06T05:45:12.612Z,97309.52
2018-11-06T05:47:41.778Z,97306.34
2018-11-06T05:50:10.618Z,97309.27
2018-11-06T05:52:40.563Z,97301.00
2018-11-06T05:55:09.389Z,97297.25
2018-11-06T05:57:38.866Z,97297.52
2018-11-06T06:00:09.452Z,97300.47
2018-11-06T06:02:38.209Z,97291.12
2018-11-06T06:05:07.882Z,97291.91
2018-11-06T06:07:37.509Z,97293.00
2018-11-06T06:10:06.914Z,97291.38
2018-11-06T06:12:36.147Z,97298.58
2018-11-06T06:15:06.106Z,97306.34
2018-11-06T06:17:35.207Z,97313.52
2018-11-06T06:20:04.768Z,97303.66
2018-11-06T06:22:33.659Z,97303.37
2018-11-06T06:25:03.107Z,97297.50
2018-11-06T06:27:32.431Z,97299.90
2018-11-06T06:30:02.003Z,97293.23
2018-11-06T06:32:30.687Z,97291.63
2018-11-06T06:34:59.574Z,97292.69
2018-11-06T06:37:28.207Z,97293.22
2018-11-06T06:39:57.330Z,97301.24
2018-11-06T06:42:27.094Z,97287.64
2018-11-06T06:44:55.840Z,97288.17
2018-11-06T06:47:25.012Z,97297.24
2018-11-06T06:49:53.867Z,97292.97
2018-11-06T06:52:23.652Z,97291.64
2018-11-06T06:54:52.730Z,97296.72
2018-11-06T06:57:21.874Z,97299.38
2018-11-06T06:59:51.083Z,97290.57
2018-11-06T07:02:19.961Z,97292.45
2018-11-06T07:04:48.623Z,97293.25
2018-11-06T07:07:17.466Z,97294.33
2018-11-06T07:09:46.208Z,97295.39
2018-11-06T07:12:15.549Z,97295.66
2018-11-06T07:14:44.498Z,97287.39
2018-11-06T07:17:19.888Z,97296.72
2018-11-06T07:19:49.392Z,97290.05
2018-11-06T07:22:18.293Z,97296.20
2018-11-06T07:24:47.293Z,97290.33
2018-11-06T07:27:16.313Z,97284.43
2018-11-06T07:29:45.691Z,97284.41
2018-11-06T07:32:14.562Z,97296.14
2018-11-06T07:34:43.565Z,97295.05
2018-11-06T07:37:12.394Z,97297.97
2018-11-06T07:39:41.445Z,97291.77
2018-11-06T07:42:10.083Z,97294.67
2018-11-06T07:44:39.684Z,97296.75
2018-11-06T07:47:08.352Z,97289.76
2018-11-06T07:49:39.390Z,97284.12
2018-11-06T07:52:09.263Z,97297.39
2018-11-06T07:54:39.078Z,97288.73
2018-11-06T07:57:09.215Z,97289.86
2018-11-06T07:59:38.484Z,97295.52
2018-11-06T08:02:07.839Z,97303.75
2018-11-06T08:04:37.147Z,97298.98
2018-11-06T08:07:06.237Z,97294.81
2018-11-06T08:09:36.166Z,97292.50
2018-11-06T08:12:05.933Z,97296.84
2018-11-06T08:14:35.705Z,97288.48
2018-11-06T08:17:05.129Z,97290.05
2018-11-06T08:19:34.297Z,97286.75
2018-11-06T08:22:03.372Z,97288.36
2018-11-06T08:24:35.488Z,97284.66
2018-11-06T08:27:05.813Z,97288.25
2018-11-06T08:29:35.164Z,97298.57
2018-11-06T08:32:04.940Z,97289.74
2018-11-06T08:34:34.402Z,97288.82
2018-11-06T08:37:04.002Z,97284.31
2018-11-06T08:39:32.823Z,97286.58
2018-11-06T08:42:02.100Z,97276.00
2018-11-06T08:44:31.453Z,97278.55
2018-11-06T08:47:00.613Z,97274.56
2018-11-06T08:49:29.745Z,97281.00
2018-11-06T08:51:59.029Z,97276.98
2018-11-06T08:54:28.263Z,97281.33
2018-11-06T08:56:56.888Z,97282.96
2018-11-06T08:59:25.524Z,97283.30
2018-11-06T09:01:55.782Z,97279.66
2018-11-06T09:04:24.680Z,97276.52
2018-11-06T09:06:53.282Z,97276.97
2018-11-06T09:09:22.643Z,97276.64
2018-11-06T09:11:51.637Z,97280.03
2018-11-06T09:14:20.487Z,97267.54
2018-11-06T09:16:49.231Z,97265.80
2018-11-06T09:19:19.804Z,97270.03
2018-11-06T09:21:48.512Z,97277.53
2018-11-06T09:24:17.615Z,97271.01
2018-11-06T09:26:46.219Z,97269.83
2018-11-06T09:29:15.712Z,97262.52
2018-11-06T09:31:44.429Z,97265.78
2018-11-06T09:34:13.814Z,97266.45
2018-11-06T09:36:42.864Z,97265.73
2018-11-06T09:39:12.548Z,97267.11
2018-11-06T09:41:41.879Z,97263.11
2018-11-06T09:44:11.213Z,97260.95
2018-11-06T09:46:40.363Z,97263.56
2018-11-06T09:49:08.947Z,97256.12
2018-11-06T09:51:38.410Z,97255.88
2018-11-06T09:54:07.160Z,97259.91
2018-11-06T09:56:36.848Z,97262.86
2018-11-06T09:59:05.944Z,97261.95
2018-11-06T10:01:34.673Z,97253.48
2018-11-06T10:04:04.229Z,97255.03
2018-11-06T10:06:33.704Z,97255.84
2018-11-06T10:09:02.401Z,97249.95
2018-11-06T10:11:31.189Z,97246.63
2018-11-06T10:14:00.028Z,97237.09
2018-11-06T10:16:29.068Z,97236.59
2018-11-06T10:18:57.829Z,97235.37
2018-11-06T10:21:26.926Z,97233.55
2018-11-06T10:23:56.195Z,97229.89
2018-11-06T10:26:25.597Z,97219.95
2018-11-06T10:28:54.168Z,97227.56
2018-11-06T10:31:23.968Z,97230.27
2018-11-06T10:33:52.887Z,97229.36
2018-11-06T10:36:21.522Z,97218.93
2018-11-06T10:38:50.478Z,97210.72
2018-11-06T10:41:19.784Z,97196.25
2018-11-06T10:43:48.900Z,97203.23
2018-11-06T10:46:17.624Z,97203.58
2018-11-06T10:48:46.343Z,97194.63
2018-11-06T10:51:15.238Z,97201.97
2018-11-06T10:53:45.783Z,97199.34
2018-11-06T10:56:14.929Z,97204.64
2018-11-06T10:58:44.324Z,97195.93
2018-11-06T11:01:18.996Z,97183.03
2018-11-06T11:03:53.087Z,97184.88
2018-11-06T11:06:21.798Z,97182.69
2018-11-06T11:08:50.894Z,97177.58
2018-11-06T11:11:20.003Z,97181.67
2018-11-06T11:13:49.472Z,97168.88
2018-11-06T11:16:18.228Z,97163.74
2018-11-06T11:18:47.679Z,97158.33
2018-11-06T11:21:16.616Z,97158.10
2018-11-06T11:23:46.213Z,97155.16
2018-11-06T11:26:15.481Z,97139.78
2018-11-06T11:28:46.669Z,97147.19
2018-11-06T11:31:16.905Z,97146.34
2018-11-06T11:33:46.350Z,97147.77
2018-11-06T11:36:15.704Z,97143.51
2018-11-06T11:38:44.850Z,97147.56
2018-11-06T11:41:14.047Z,97148.21
2018-11-06T11:43:43.378Z,97145.18
2018-11-06T11:46:12.575Z,97150.24
2018-11-06T11:48:41.805Z,97140.66
2018-11-06T11:51:10.974Z,97144.66
2018-11-06T11:53:40.404Z,97135.92
2018-11-06T11:56:10.183Z,97129.61
2018-11-06T11:58:39.458Z,97136.63
2018-11-06T12:01:09.717Z,97126.59
2018-11-06T12:03:39.068Z,97130.91
2018-11-06T12:06:08.264Z,97122.48
2018-11-06T12:08:37.445Z,97122.02
2018-11-06T12:11:06.873Z,97121.88
2018-11-06T12:13:35.808Z,97116.73
2018-11-06T12:16:05.780Z,97113.07
2018-11-06T12:18:34.595Z,97109.39
2018-11-06T12:21:03.599Z,97107.66
2018-11-06T12:23:33.753Z,97111.25
2018-11-06T12:26:02.616Z,97107.95
2018-11-06T12:28:31.860Z,97100.35
2018-11-06T12:31:01.129Z,97101.48
2018-11-06T12:33:30.646Z,97096.98
2018-11-06T12:35:59.539Z,97101.62
2018-11-06T12:38:28.266Z,97104.64
2018-11-06T12:40:57.041Z,97102.73
2018-11-06T12:43:25.843Z,97097.95
2018-11-06T12:45:54.604Z,97102.63
2018-11-06T12:48:23.535Z,97097.98
2018-11-06T12:50:53.153Z,97102.37
2018-11-06T12:53:22.175Z,97096.40
2018-11-06T12:55:51.478Z,97094.72
2018-11-06T12:58:20.685Z,97079.45
2018-11-06T13:00:50.097Z,97083.63
2018-11-06T13:03:19.184Z,97083.77
2018-11-06T13:05:49.150Z,97090.16
2018-11-06T13:08:18.307Z,97085.49
2018-11-06T13:10:47.365Z,97085.91
2018-11-06T13:13:17.116Z,97079.52
2018-11-06T13:15:46.023Z,97083.10
2018-11-06T13:18:15.278Z,97086.45
2018-11-06T13:20:44.479Z,97076.24
2018-11-06T13:23:13.539Z,97070.32
2018-11-06T13:25:42.355Z,97066.96
2018-11-06T13:28:12.230Z,97065.89
2018-11-06T13:30:42.760Z,97062.23
2018-11-06T13:33:12.513Z,97061.16
2018-11-06T13:35:41.311Z,97064.32
2018-11-06T13:38:10.261Z,97063.66
2018-11-06T13:40:39.194Z,97060.71
2018-11-06T13:43:10.170Z,97066.14
2018-11-06T13:45:38.991Z,97063.98
2018-11-06T13:48:08.090Z,97058.83
2018-11-06T13:50:36.903Z,97059.39
2018-11-06T13:53:06.316Z,97061.52
2018-11-06T13:55:35.527Z,97054.40
2018-11-06T13:58:05.110Z,97058.75
2018-11-06T14:00:34.080Z,97053.44
2018-11-06T14:03:03.080Z,97059.63
2018-11-06T14:05:32.591Z,97058.23
2018-11-06T14:08:01.629Z,97063.98
2018-11-06T14:10:31.014Z,97067.51
2018-11-06T14:13:01.150Z,97068.89
2018-11-06T14:15:30.341Z,97073.29
2018-11-06T14:18:00.571Z,97078.11
2018-11-06T14:20:29.380Z,97068.75
2018-11-06T14:22:59.119Z,97073.55
2018-11-06T14:25:28.170Z,97074.50
2018-11-06T14:27:56.991Z,97071.64
2018-11-06T14:30:25.859Z,97075.48
2018-11-06T14:32:54.865Z,97078.24
2018-11-06T14:35:23.674Z,97080.02
2018-11-06T14:37:52.432Z,97081.02
2018-11-06T14:40:21.533Z,97082.71
2018-11-06T14:42:50.813Z,97077.21
2018-11-06T14:45:20.200Z,97082.67
2018-11-06T14:47:49.287Z,97075.78
2018-11-06T14:50:18.504Z,97081.12
2018-11-06T14:52:47.356Z,97077.18
2018-11-06T14:55:17.306Z,97091.48
2018-11-06T14:57:46.265Z,97082.56
2018-11-06T15:00:18.426Z,97084.59
2018-11-06T15:02:48.780Z,97087.08
2018-11-06T15:05:19.156Z,97080.28
2018-11-06T15:07:48.074Z,97083.42
2018-11-06T15:10:17.377Z,97084.56
2018-11-06T15:12:46.853Z,97093.92
2018-11-06T15:15:16.675Z,97095.94
2018-11-06T15:17:46.844Z,97103.17
2018-11-06T15:20:17.106Z,97102.81
2018-11-06T15:22:46.451Z,97105.37
2018-11-06T15:25:15.995Z,97106.91
2018-11-06T15:27:44.746Z,97109.69
2018-11-06T15:30:16.062Z,97110.20
2018-11-06T15:32:45.061Z,97102.55
2018-11-06T15:35:15.191Z,97103.39
2018-11-06T15:37:44.107Z,97105.31
2018-11-06T15:40:15.599Z,97106.48
2018-11-06T15:42:44.545Z,97110.13
2018-11-06T15:45:16.225Z,97114.55
2018-11-06T15:47:45.590Z,97111.94
2018-11-06T15:50:15.679Z,97114.39
2018-11-06T15:52:45.564Z,97123.86
2018-11-06T15:55:14.515Z,97132.85
2018-11-06T15:57:43.306Z,97137.73
2018-11-06T16:00:16.262Z,97142.59
2018-11-06T16:02:46.017Z,97146.51
2018-11-06T16:05:15.491Z,97153.79
2018-11-06T16:07:45.659Z,97155.91
2018-11-06T16:10:17.367Z,97167.59
2018-11-06T16:12:47.276Z,97170.08
2018-11-06T16:15:16.591Z,97176.25
2018-11-06T16:17:45.310Z,97176.35
2018-11-06T16:20:15.832Z,97192.29
2018-11-06T16:22:45.240Z,97214.06
2018-11-06T16:25:15.341Z,97236.56
2018-11-06T16:27:44.964Z,97242.18
2018-11-06T16:30:15.624Z,97250.89
2018-11-06T16:32:46.174Z,97261.08
2018-11-06T16:35:17.953Z,97272.70
2018-11-06T16:37:48.181Z,97273.24
2018-11-06T16:40:19.414Z,97269.73
2018-11-06T16:42:50.717Z,97277.23
2018-11-06T16:45:21.806Z,97290.77
2018-11-06T16:47:52.343Z,97289.13
2018-11-06T16:50:21.502Z,97306.48
2018-11-06T16:52:50.476Z,97309.57
2018-11-06T16:55:20.720Z,97309.37
2018-11-06T16:57:49.717Z,97319.17
2018-11-06T17:00:21.590Z,97328.62
2018-11-06T17:02:50.301Z,97332.17
2018-11-06T17:05:20.706Z,97336.97
2018-11-06T17:07:50.135Z,97352.77
2018-11-06T17:10:19.444Z,97358.03
2018-11-06T17:12:48.612Z,97370.81
2018-11-06T17:15:20.353Z,97366.47
2018-11-06T17:17:51.772Z,97385.20
2018-11-06T17:20:21.749Z,97388.86
2018-11-06T17:22:50.981Z,97379.70
2018-11-06T17:25:21.437Z,97396.77
2018-11-06T17:27:50.485Z,97400.84
2018-11-06T17:30:20.072Z,97424.62
2018-11-06T17:32:48.923Z,97424.93
2018-11-06T17:35:19.165Z,97421.38
2018-11-06T17:37:48.144Z,97429.86
2018-11-06T17:40:18.796Z,97428.61
2018-11-06T17:42:47.717Z,97433.81
2018-11-06T17:45:18.490Z,97439.26
2018-11-06T17:47:47.327Z,97438.67
2018-11-06T17:50:16.760Z,97448.78
2018-11-06T17:52:46.489Z,97450.20
2018-11-06T17:55:16.905Z,97450.38
2018-11-06T17:57:45.746Z,97454.83
2018-11-06T18:00:18.307Z,97445.27
2018-11-06T18:02:48.215Z,97448.99
2018-11-06T18:05:18.463Z,97450.69
2018-11-06T18:07:47.537Z,97463.35
2018-11-06T18:10:17.939Z,97468.33
2018-11-06T18:12:47.871Z,97473.36
2018-11-06T18:15:17.222Z,97476.79
2018-11-06T18:17:46.768Z,97473.56
2018-11-06T18:20:15.979Z,97472.21
2018-11-06T18:22:46.674Z,97469.10
2018-11-06T18:25:17.161Z,97468.95
2018-11-06T18:27:46.272Z,97473.06
2018-11-06T18:30:17.400Z,97484.94
2018-11-06T18:32:46.513Z,97484.10
2018-11-06T18:35:16.884Z,97486.17
2018-11-06T18:37:45.869Z,97487.64
2018-11-06T18:40:16.946Z,97477.79
2018-11-06T18:42:47.427Z,97485.17
2018-11-06T18:45:16.824Z,97493.01
2018-11-06T18:47:45.847Z,97493.78
2018-11-06T18:50:16.313Z,97493.62
2018-11-06T18:52:46.508Z,97497.15
2018-11-06T18:55:15.533Z,97492.38
2018-11-06T18:57:44.766Z,97499.27
2018-11-06T19:00:17.367Z,97496.72
2018-11-06T19:02:48.081Z,97502.95
2018-11-06T19:05:17.730Z,97506.00
2018-11-06T19:07:46.767Z,97499.41
2018-11-06T19:10:16.635Z,97502.61
2018-11-06T19:12:46.170Z,97499.55
2018-11-06T19:15:20.651Z,97499.88
2018-11-06T19:17:50.227Z,97503.64
2018-11-06T19:20:19.486Z,97498.53
2018-11-06T19:22:48.842Z,97501.73
2018-11-06T19:25:18.147Z,97502.06
2018-11-06T19:27:47.717Z,97502.97
2018-11-06T19:30:18.609Z,97513.48
2018-11-06T19:32:47.698Z,97515.67
2018-11-06T19:35:16.896Z,97520.03
2018-11-06T19:37:45.943Z,97520.89
2018-11-06T19:40:16.159Z,97523.85
2018-11-06T19:42:45.972Z,97531.47
2018-11-06T19:45:15.135Z,97524.89
2018-11-06T19:47:45.078Z,97521.69
2018-11-06T19:50:15.630Z,97522.98
2018-11-06T19:52:45.374Z,97527.06
2018-11-06T19:55:15.371Z,97526.74
2018-11-06T19:57:45.658Z,97539.37
2018-11-06T20:00:19.668Z,97539.91
2018-11-06T20:02:50.096Z,97546.68
2018-11-06T20:05:19.742Z,97546.68
2018-11-06T20:07:51.355Z,97556.22
2018-11-06T20:10:21.875Z,97552.14
2018-11-06T20:12:53.671Z,97549.27
2018-11-06T20:15:22.989Z,97547.65
2018-11-06T20:17:53.102Z,97550.14
2018-11-06T20:20:24.333Z,97555.25
2018-11-06T20:22:54.216Z,97566.52
2018-11-06T20:25:23.642Z,97556.86
2018-11-06T20:27:53.052Z,97555.37
2018-11-06T20:30:24.192Z,97552.05
2018-11-06T20:32:53.823Z,97547.48
2018-11-06T20:35:23.327Z,97551.06
2018-11-06T20:37:52.839Z,97541.75
2018-11-06T20:40:23.983Z,97544.44
2018-11-06T20:42:53.353Z,97546.30
2018-11-06T20:45:23.604Z,97554.03
2018-11-06T20:47:52.892Z,97546.50
2018-11-06T20:50:24.167Z,97541.34
2018-11-06T20:52:53.852Z,97542.47
2018-11-06T20:55:23.281Z,97545.47
2018-11-06T20:57:52.342Z,97546.85
2018-11-06T21:00:23.394Z,97550.25
2018-11-06T21:02:54.625Z,97555.58
2018-11-06T21:05:23.865Z,97562.56
2018-11-06T21:07:53.125Z,97562.27
2018-11-06T21:10:23.613Z,97565.30
2018-11-06T21:12:52.531Z,97571.47
2018-11-06T21:15:21.768Z,97569.83
2018-11-06T21:17:50.970Z,97577.92
2018-11-06T21:20:21.350Z,97577.95
2018-11-06T21:22:50.338Z,97583.88
2018-11-06T21:25:20.035Z,97579.34
2018-11-06T21:27:48.773Z,97574.01
2018-11-06T21:30:19.732Z,97577.83
2018-11-06T21:32:50.358Z,97574.56
2018-11-06T21:35:19.412Z,97575.98
2018-11-06T21:37:48.573Z,97581.05
2018-11-06T21:40:18.698Z,97577.84
2018-11-06T21:42:48.275Z,97578.67
2018-11-06T21:45:17.858Z,97577.38
2018-11-06T21:47:48.704Z,97571.47
2018-11-06T21:50:18.120Z,97571.67
2018-11-06T21:52:47.137Z,97575.42
2018-11-06T21:55:17.352Z,97577.07
2018-11-06T21:57:46.243Z,97575.00
2018-11-06T22:00:17.952Z,97574.73
2018-11-06T22:02:47.668Z,97574.77
2018-11-06T22:05:17.869Z,97580.67
2018-11-06T22:07:47.295Z,97580.16
2018-11-06T22:10:17.363Z,97585.00
2018-11-06T22:12:46.826Z,97585.73
2018-11-06T22:15:17.189Z,97586.87
2018-11-06T22:17:46.356Z,97596.75
2018-11-06T22:20:16.586Z,97589.55
2018-11-06T22:22:46.670Z,97591.13
2018-11-06T22:25:15.518Z,97592.27
2018-11-06T22:27:44.654Z,97595.25
2018-11-06T22:30:15.218Z,97595.27
2018-11-06T22:32:44.964Z,97605.45
2018-11-06T22:35:15.573Z,97603.58
2018-11-06T22:37:44.725Z,97602.80
2018-11-06T22:40:15.583Z,97596.70
2018-11-06T22:42:44.911Z,97603.41
2018-11-06T22:45:15.193Z,97609.35
2018-11-06T22:47:45.007Z,97604.52
2018-11-06T22:50:16.480Z,97607.18
2018-11-06T22:52:45.952Z,97606.07
2018-11-06T22:55:14.989Z,97615.23
2018-11-06T22:57:44.108Z,97601.25
2018-11-06T23:00:17.354Z,97611.00
2018-11-06T23:02:46.474Z,97607.28
2018-11-06T23:05:15.849Z,97604.60
2018-11-06T23:07:50.639Z,97612.34
2018-11-06T23:10:19.924Z,97611.30
2018-11-06T23:12:49.576Z,97608.86
2018-11-06T23:15:18.428Z,97609.99
2018-11-06T23:17:47.250Z,97611.84
2018-11-06T23:20:16.187Z,97614.28
2018-11-06T23:22:45.043Z,97616.16
2018-11-06T23:25:14.256Z,97612.95
2018-11-06T23:27:43.564Z,97608.41
2018-11-06T23:30:14.353Z,97613.77
2018-11-06T23:32:43.246Z,97607.88
2018-11-06T23:35:12.297Z,97609.24
2018-11-06T23:37:42.322Z,97614.10
2018-11-06T23:40:12.259Z,97613.05
2018-11-06T23:42:41.370Z,97610.89
2018-11-06T23:45:11.157Z,97616.24
2018-11-06T23:47:40.231Z,97621.09
2018-11-06T23:50:10.392Z,97624.53
2018-11-06T23:52:40.687Z,97622.95
2018-11-06T23:55:09.886Z,97624.06
2018-11-06T23:57:38.965Z,97630.23
